Time;durP1;ratioP1;P1;durP2;ratioP2;P2;SDS_P1;SDS_P2;PMS_P1;PMS_P2;Temp;Humidity;BMP_temperature;BMP_pressure;BME280_temperature;BME280_humidity;BME280_pressure;Samples;Min_cycle;Max_cycle;Signal;HPM_P1;HPM_P2
2022/10/23 00:00:40;;;;;;;31.07;18.83;;;13.20;93.70;;;13.35;60.48;95440.13;5042174;28;20535;-53
2022/10/23 00:03:07;;;;;;;41.30;17.97;;;13.10;94.00;;;13.30;59.98;95439.69;5043489;28;20448;-55
2022/10/23 00:05:34;;;;;;;36.07;17.23;;;13.10;93.80;;;13.30;59.94;95445.78;5043222;28;20873;-55
2022/10/23 00:08:03;;;;;;;35.37;19.27;;;13.10;93.90;;;13.30;59.76;95444.97;5045741;28;20505;-56
2022/10/23 00:10:30;;;;;;;29.60;20.07;;;13.10;93.70;;;13.26;59.83;95431.19;5041402;28;20956;-55
2022/10/23 00:12:57;;;;;;;33.67;21.57;;;13.10;93.40;;;13.24;60.03;95443.72;5038561;28;21030;-56
2022/10/23 00:15:26;;;;;;;38.50;22.77;;;13.00;93.50;;;13.24;59.85;95447.19;5040594;28;20464;-54
2022/10/23 00:17:53;;;;;;;35.40;20.53;;;13.00;93.80;;;13.27;60.39;95427.59;5040648;28;20503;-55
2022/10/23 00:20:21;;;;;;;37.03;21.13;;;13.00;94.10;;;13.27;59.62;95417.84;5042533;28;20525;-56
2022/10/23 00:22:48;;;;;;;31.77;21.40;;;13.10;93.80;;;13.28;59.86;95432.72;5046399;28;20513;-59
2022/10/23 00:25:17;;;;;;;44.47;22.40;;;13.10;93.80;;;13.28;59.59;95427.44;5044422;28;20472;-54
2022/10/23 00:27:44;;;;;;;33.47;23.00;;;13.10;93.80;;;13.30;60.07;95419.38;5043509;28;20452;-56
2022/10/23 00:30:13;;;;;;;41.83;22.70;;;13.10;94.00;;;13.32;60.25;95435.09;5039736;28;21383;-55
2022/10/23 00:32:40;;;;;;;46.50;24.00;;;13.10;94.20;;;13.33;60.53;95439.41;5042090;28;20456;-54
2022/10/23 00:35:08;;;;;;;45.83;25.50;;;13.10;94.20;;;13.35;59.91;95442.75;5035959;28;20467;-54
2022/10/23 00:37:36;;;;;;;51.53;25.37;;;13.10;93.90;;;13.35;60.02;95427.72;5039787;28;20459;-55
2022/10/23 00:40:04;;;;;;;42.57;21.67;;;13.20;93.90;;;13.38;59.64;95434.53;5042966;28;20545;-54
2022/10/23 00:42:32;;;;;;;33.30;20.80;;;13.20;94.10;;;13.42;59.67;95428.00;5041985;28;20509;-55
2022/10/23 00:45:22;;;;;;;31.77;19.87;;;13.20;93.60;;;13.46;59.83;95429.38;5043086;28;21087;-55
2022/10/23 00:47:49;;;;;;;37.90;21.20;;;13.20;93.60;;;13.50;59.58;95425.47;5038808;28;20444;-54
2022/10/23 00:50:17;;;;;;;38.87;19.63;;;13.30;93.80;;;13.53;59.62;95425.19;5042631;28;20472;-56
2022/10/23 00:52:48;;;;;;;29.63;16.80;;;13.30;93.70;;;13.56;59.39;95413.50;5037611;28;20463;-54
2022/10/23 00:55:15;;;;;;;27.70;15.60;;;13.30;93.40;;;13.57;58.98;95405.44;5042046;28;21027;-55
2022/10/23 00:57:45;;;;;;;26.07;12.33;;;13.40;93.40;;;13.63;59.13;95411.94;5039585;28;20970;-54
2022/10/23 01:00:16;;;;;;;17.90;9.80;;;13.40;93.40;;;13.67;58.76;95404.56;5035601;28;20468;-54
2022/10/23 01:02:43;;;;;;;17.53;8.10;;;13.40;93.10;;;13.72;58.64;95403.13;5043029;28;20455;-55
2022/10/23 01:05:11;;;;;;;16.70;8.03;;;13.50;93.00;;;13.78;58.40;95401.72;5036833;28;20493;-57
2022/10/23 01:07:47;;;;;;;26.77;9.17;;;13.60;92.90;;;13.87;58.27;95410.59;5041149;28;20455;-54
2022/10/23 01:10:17;;;;;;;19.33;9.80;;;13.60;92.70;;;13.95;58.11;95435.31;5036076;28;21075;-55
2022/10/23 01:12:51;;;;;;;31.37;18.80;;;13.70;92.60;;;13.96;58.10;95442.25;5043732;28;20444;-54
2022/10/23 01:15:22;;;;;;;30.87;17.23;;;13.70;92.40;;;13.83;57.83;95451.50;5040884;28;20590;-56
2022/10/23 01:17:52;;;;;;;28.07;16.90;;;13.70;92.10;;;13.70;58.09;95459.78;5043639;28;20436;-54
2022/10/23 01:20:36;;;;;;;24.77;14.67;;;13.60;92.20;;;13.61;58.56;95449.06;5041125;28;20474;-56
2022/10/23 01:23:26;;;;;;;27.93;15.30;;;13.50;92.40;;;13.54;58.16;95458.56;5039277;28;20980;-53
2022/10/23 01:26:19;;;;;;;31.63;16.40;;;13.40;92.30;;;13.51;58.50;95464.16;5038259;28;20542;-54
2022/10/23 01:28:50;;;;;;;33.30;19.13;;;13.30;92.40;;;13.46;58.45;95474.28;5042556;28;20471;-55
2022/10/23 01:31:19;;;;;;;39.97;21.30;;;13.30;92.30;;;13.39;57.91;95475.84;5034962;28;20452;-54
2022/10/23 01:33:50;;;;;;;43.90;20.17;;;13.20;92.20;;;13.35;58.40;95479.75;5042666;28;20487;-56
2022/10/23 01:36:19;;;;;;;34.53;19.83;;;13.20;92.30;;;13.27;58.30;95470.69;5037143;28;20452;-54
2022/10/23 01:38:49;;;;;;;39.67;18.33;;;13.10;92.20;;;13.22;58.43;95472.91;5035225;28;20491;-55
2022/10/23 01:41:18;;;;;;;31.30;18.40;;;13.00;92.30;;;13.17;58.20;95469.88;5037858;28;20507;-56
2022/10/23 01:43:49;;;;;;;31.20;17.90;;;13.00;92.30;;;13.11;58.55;95473.09;5043842;28;20479;-54
2022/10/23 01:46:17;;;;;;;27.50;16.73;;;13.00;92.30;;;13.06;58.72;95459.47;5040779;28;20443;-55
2022/10/23 01:48:50;;;;;;;38.13;17.27;;;12.90;92.60;;;13.06;58.80;95454.19;5042934;28;20475;-57
2022/10/23 01:51:17;;;;;;;30.43;19.33;;;12.90;92.70;;;13.05;58.65;95452.50;5042555;28;20546;-56
2022/10/23 01:53:45;;;;;;;38.57;18.17;;;12.90;92.60;;;13.02;58.85;95458.91;5041429;28;20480;-55
2022/10/23 01:56:15;;;;;;;30.50;18.03;;;12.80;92.70;;;13.00;58.93;95470.59;5039647;28;20487;-54
2022/10/23 01:58:45;;;;;;;34.67;18.87;;;12.80;92.70;;;12.93;59.35;95477.41;5042942;28;21047;-55
2022/10/23 02:01:14;;;;;;;29.50;17.47;;;12.80;93.00;;;12.87;59.29;95489.34;5043185;28;20956;-55
2022/10/23 02:03:41;;;;;;;43.20;19.83;;;12.70;93.10;;;12.85;59.68;95500.03;5042794;28;20491;-53
2022/10/23 02:06:08;;;;;;;40.83;21.30;;;12.70;93.30;;;12.83;59.65;95502.00;5043729;28;20459;-55
2022/10/23 02:08:36;;;;;;;32.40;21.60;;;12.70;93.40;;;12.81;60.15;95500.44;5040431;28;20479;-54
2022/10/23 02:11:07;;;;;;;43.77;21.13;;;12.60;93.70;;;12.78;60.26;95498.94;5040116;28;20460;-54
2022/10/23 02:13:38;;;;;;;41.43;22.03;;;12.60;93.80;;;12.74;60.36;95497.53;5037579;28;20850;-58
2022/10/23 02:16:10;;;;;;;52.47;22.80;;;12.60;94.00;;;12.71;60.65;95511.84;5044308;28;20447;-53
2022/10/23 02:18:43;;;;;;;36.50;21.40;;;12.60;94.30;;;12.71;61.14;95517.09;5043221;28;20480;-57
2022/10/23 02:21:12;;;;;;;47.83;23.30;;;12.60;95.00;;;12.72;60.97;95504.78;5046698;28;20941;-57
2022/10/23 02:23:40;;;;;;;43.60;24.07;;;12.60;94.70;;;12.72;61.29;95508.22;5046932;28;20482;-56
2022/10/23 02:26:11;;;;;;;39.90;24.47;;;12.50;95.00;;;12.72;61.28;95507.41;5044234;28;20876;-54
2022/10/23 02:28:40;;;;;;;41.53;21.53;;;12.60;94.90;;;12.72;61.65;95513.50;5045089;28;20499;-55
2022/10/23 02:31:08;;;;;;;49.40;23.50;;;12.50;95.30;;;12.72;61.55;95502.94;5042521;28;20921;-54
2022/10/23 02:33:35;;;;;;;50.07;24.30;;;12.60;95.60;;;12.71;61.41;95517.09;5046089;28;20475;-55
2022/10/23 02:36:04;;;;;;;45.20;23.30;;;12.60;95.20;;;12.72;61.74;95525.88;5045172;28;20452;-55
2022/10/23 02:38:34;;;;;;;43.23;23.70;;;12.50;95.60;;;12.72;61.63;95524.06;5042182;28;20455;-55
2022/10/23 02:41:13;;;;;;;62.13;24.67;;;12.60;95.60;;;12.73;61.62;95516.97;5044544;28;20816;-55
2022/10/23 02:43:45;;;;;;;40.90;21.00;;;12.60;95.60;;;12.73;61.52;95517.81;5044899;28;20811;-54
2022/10/23 02:46:18;;;;;;;33.70;19.73;;;12.50;95.40;;;12.71;62.22;95524.19;5042329;28;20453;-52
2022/10/23 02:48:48;;;;;;;30.03;19.23;;;12.60;95.50;;;12.69;61.61;95521.69;5046975;28;20483;-56
2022/10/23 02:51:21;;;;;;;35.03;19.43;;;12.50;95.30;;;12.69;61.71;95523.50;5040663;28;20486;-53
2022/10/23 02:53:57;;;;;;;40.27;20.17;;;12.50;95.60;;;12.71;61.71;95518.94;5037882;28;20475;-55
2022/10/23 02:56:28;;;;;;;36.00;21.20;;;12.50;95.70;;;12.73;61.84;95524.88;5045052;28;20846;-54
2022/10/23 02:58:59;;;;;;;31.87;19.23;;;12.60;95.80;;;12.77;61.60;95536.03;5043682;28;20639;-55
2022/10/23 03:01:29;;;;;;;35.20;19.20;;;12.60;95.80;;;12.79;62.01;95536.72;5044936;28;20451;-54
2022/10/23 03:03:57;;;;;;;33.80;20.67;;;12.60;95.80;;;12.83;61.53;95532.84;5040387;28;20484;-54
2022/10/23 03:06:26;;;;;;;31.80;19.87;;;12.60;95.70;;;12.85;61.89;95521.16;5047256;28;20972;-56
2022/10/23 03:09:00;;;;;;;39.93;20.40;;;12.70;96.10;;;12.89;61.87;95527.84;5039243;28;20471;-55
2022/10/23 03:11:27;;;;;;;33.90;19.20;;;12.70;95.80;;;12.97;61.84;95521.03;5044747;28;20982;-53
2022/10/23 03:13:55;;;;;;;31.07;17.63;;;12.80;95.80;;;13.01;61.63;95515.34;5042907;28;20479;-54
2022/10/23 03:16:22;;;;;;;44.40;17.00;;;12.80;95.80;;;13.09;61.30;95519.94;5044227;28;20514;-57
2022/10/23 03:18:49;;;;;;;28.00;15.57;;;12.90;95.60;;;13.17;61.02;95520.06;5043397;28;20510;-54
2022/10/23 03:21:16;;;;;;;23.47;13.47;;;12.90;95.30;;;13.25;60.70;95512.25;5042963;28;20452;-55
2022/10/23 03:23:45;;;;;;;22.13;11.67;;;13.00;94.90;;;13.34;59.75;95529.13;5042135;28;20530;-56
2022/10/23 03:26:12;;;;;;;17.03;11.47;;;13.10;94.50;;;13.44;59.71;95531.75;5037747;28;20525;-56
2022/10/23 03:28:39;;;;;;;23.37;11.00;;;13.20;94.20;;;13.55;59.51;95530.75;5043369;28;20464;-57
2022/10/23 03:31:07;;;;;;;18.43;10.57;;;13.30;94.00;;;13.66;58.96;95535.88;5043332;28;20455;-54
2022/10/23 03:33:34;;;;;;;19.93;11.13;;;13.40;93.60;;;13.76;58.52;95539.34;5044521;28;20712;-54
2022/10/23 03:36:01;;;;;;;19.90;8.93;;;13.50;93.50;;;13.86;58.30;95531.38;5045234;28;20460;-54
2022/10/23 03:38:28;;;;;;;12.90;7.87;;;13.60;93.00;;;13.98;57.66;95543.44;5042011;28;20499;-54
2022/10/23 03:40:57;;;;;;;30.23;7.80;;;13.70;92.70;;;14.08;57.53;95542.56;5042722;28;20498;-54
2022/10/23 03:43:24;;;;;;;13.97;7.80;;;13.80;92.30;;;14.17;57.02;95544.34;5045073;28;20486;-55
2022/10/23 03:45:52;;;;;;;13.63;8.87;;;13.90;92.00;;;14.27;56.80;95550.44;5042640;28;20449;-55
2022/10/23 03:48:19;;;;;;;12.80;8.33;;;14.00;92.00;;;14.35;56.86;95555.84;5043203;28;20459;-56
2022/10/23 03:50:46;;;;;;;19.03;7.90;;;14.10;91.70;;;14.45;56.28;95549.66;5042139;28;20467;-54
2022/10/23 03:53:14;;;;;;;18.47;7.50;;;14.20;91.10;;;14.50;55.78;95558.00;5043234;28;20456;-56
2022/10/23 03:55:41;;;;;;;14.63;7.07;;;14.20;90.90;;;14.57;55.60;95563.56;5043553;28;20464;-55
2022/10/23 03:58:09;;;;;;;16.67;9.17;;;14.30;90.70;;;14.62;55.50;95569.25;5044571;28;20463;-56
2022/10/23 04:00:37;;;;;;;27.93;7.70;;;14.40;90.60;;;14.68;55.69;95576.63;5043432;28;20491;-56
2022/10/23 04:03:04;;;;;;;15.37;7.40;;;14.40;90.50;;;14.69;55.52;95565.88;5041925;28;21081;-54
2022/10/23 04:05:31;;;;;;;9.57;6.80;;;14.40;90.30;;;14.74;54.83;95577.84;5042709;28;20445;-54
2022/10/23 04:07:59;;;;;;;9.90;6.37;;;14.50;89.70;;;14.75;55.17;95574.19;5045743;28;20524;-52
2022/10/23 04:10:26;;;;;;;17.40;7.90;;;14.50;89.70;;;14.78;54.69;95579.19;5041562;28;20447;-56
2022/10/23 04:12:53;;;;;;;15.07;6.77;;;14.50;89.50;;;14.80;54.61;95577.25;5039800;28;20447;-55
2022/10/23 04:15:22;;;;;;;10.20;5.83;;;14.50;89.10;;;14.81;54.31;95571.81;5043689;28;20476;-55
2022/10/23 04:17:49;;;;;;;19.83;6.80;;;14.60;88.40;;;14.82;54.06;95568.16;5042046;28;20511;-54
2022/10/23 04:20:16;;;;;;;18.80;7.03;;;14.60;87.80;;;14.84;54.33;95568.00;5043486;28;20500;-56
2022/10/23 04:22:44;;;;;;;13.77;7.23;;;14.60;87.80;;;14.86;54.31;95577.47;5045057;28;20451;-54
2022/10/23 04:25:11;;;;;;;12.40;6.37;;;14.60;87.80;;;14.91;53.99;95570.91;5041049;28;20488;-56
2022/10/23 04:27:38;;;;;;;13.53;6.50;;;14.60;87.40;;;14.93;54.37;95569.78;5044713;28;20483;-58
2022/10/23 04:30:07;;;;;;;14.13;6.60;;;14.70;87.10;;;14.97;53.98;95572.97;5041134;28;20472;-54
2022/10/23 04:32:36;;;;;;;17.90;10.40;;;14.70;86.80;;;15.00;53.68;95557.59;5041947;28;20460;-54
2022/10/23 04:35:04;;;;;;;13.10;8.47;;;14.70;86.80;;;15.02;53.70;95560.91;5043626;28;20503;-56
2022/10/23 04:37:31;;;;;;;15.87;6.80;;;14.80;87.00;;;15.04;53.68;95572.22;5035220;28;20444;-56
2022/10/23 04:39:58;;;;;;;13.00;6.20;;;14.80;86.70;;;15.05;53.64;95579.16;5031358;28;20494;-54
2022/10/23 04:42:26;;;;;;;15.27;8.73;;;14.80;86.80;;;15.06;53.68;95572.06;5040522;28;20448;-56
2022/10/23 04:44:53;;;;;;;15.57;7.67;;;14.80;86.80;;;15.05;53.79;95570.41;5042577;28;20464;-55
2022/10/23 04:47:20;;;;;;;13.23;6.70;;;14.80;86.60;;;15.05;53.66;95576.53;5041844;28;20518;-57
2022/10/23 04:49:49;;;;;;;12.07;6.30;;;14.80;86.50;;;15.05;53.65;95576.53;5043244;28;21089;-55
2022/10/23 04:52:16;;;;;;;13.00;6.77;;;14.80;85.90;;;15.05;53.27;95571.22;5039744;28;20467;-57
2022/10/23 04:54:43;;;;;;;15.13;6.40;;;14.80;85.40;;;15.08;52.96;95569.28;5042075;28;20464;-54
2022/10/23 04:57:10;;;;;;;8.43;5.40;;;14.80;84.90;;;15.08;52.88;95575.41;5042223;28;21030;-55
2022/10/23 04:59:38;;;;;;;16.67;5.60;;;14.90;84.20;;;15.11;52.61;95584.88;5044320;28;20496;-53
2022/10/23 05:02:05;;;;;;;17.93;6.63;;;14.90;83.40;;;15.14;52.29;95579.28;5041031;28;20471;-55
2022/10/23 05:04:32;;;;;;;20.67;7.30;;;14.90;82.70;;;15.16;52.24;95582.59;5023391;28;20547;-55
2022/10/23 05:07:01;;;;;;;13.53;5.90;;;14.90;82.60;;;15.19;52.04;95587.59;5029926;28;20445;-54
2022/10/23 05:09:29;;;;;;;11.93;5.10;;;14.90;82.20;;;15.22;51.75;95582.81;5040676;28;20471;-57
2022/10/23 05:11:56;;;;;;;12.23;6.00;;;14.90;81.50;;;15.27;51.57;95584.19;5035353;28;20461;-55
2022/10/23 05:14:23;;;;;;;9.20;5.67;;;15.00;81.40;;;15.31;51.55;95594.34;5043466;28;20530;-55
2022/10/23 05:16:53;;;;;;;15.90;6.37;;;15.00;80.90;;;15.34;51.28;95590.56;5038348;28;20554;-54
2022/10/23 05:19:22;;;;;;;12.13;4.87;;;15.10;81.00;;;15.39;51.31;95593.59;5028962;28;20558;-55
2022/10/23 05:21:50;;;;;;;18.13;6.17;;;15.10;80.90;;;15.44;51.24;95593.13;5041966;28;20448;-55
2022/10/23 05:24:18;;;;;;;9.60;5.10;;;15.20;80.40;;;15.48;50.63;95592.66;5041446;28;20464;-55
2022/10/23 05:26:46;;;;;;;19.53;6.00;;;15.20;79.30;;;15.53;50.88;95597.53;5034606;28;20556;-56
2022/10/23 05:29:13;;;;;;;10.43;5.00;;;15.30;79.70;;;15.58;50.26;95587.28;5040124;28;20467;-55
2022/10/23 05:31:40;;;;;;;9.87;5.80;;;15.30;78.90;;;15.63;50.98;95590.31;5038874;28;20534;-54
2022/10/23 05:34:08;;;;;;;13.53;6.50;;;15.30;79.10;;;15.67;50.95;95596.97;5026757;28;20460;-55
2022/10/23 05:36:35;;;;;;;14.77;6.60;;;15.40;79.20;;;15.71;50.57;95611.59;5032132;28;20600;-53
2022/10/23 05:39:03;;;;;;;10.53;6.23;;;15.50;79.90;;;15.80;50.69;95617.00;5025328;28;20457;-55
2022/10/23 05:41:31;;;;;;;9.50;5.90;;;15.50;79.20;;;15.89;50.72;95622.19;5030911;28;20487;-54
2022/10/23 05:43:59;;;;;;;18.60;6.23;;;15.60;79.30;;;16.01;50.50;95633.41;5027850;28;20457;-54
2022/10/23 05:46:26;;;;;;;12.13;5.90;;;15.70;79.00;;;16.09;50.52;95638.75;5031185;28;20596;-54
2022/10/23 05:48:54;;;;;;;9.37;5.60;;;15.80;78.90;;;16.18;50.74;95636.19;5030961;28;20547;-55
2022/10/23 05:51:22;;;;;;;14.13;6.40;;;15.90;79.40;;;16.31;51.28;95637.44;5028024;28;20460;-56
2022/10/23 05:53:49;;;;;;;10.73;6.00;;;16.00;80.70;;;16.52;51.25;95643.38;5032491;28;20468;-57
2022/10/23 05:56:16;;;;;;;15.90;6.00;;;16.20;81.40;;;16.77;51.61;95647.78;5039133;28;20448;-54
2022/10/23 05:58:45;;;;;;;16.73;6.83;;;16.40;82.30;;;17.12;51.31;95661.94;5046655;28;20475;-55
2022/10/23 06:01:13;;;;;;;13.13;5.80;;;16.70;81.90;;;17.49;50.56;95655.41;5047579;28;20996;-56
2022/10/23 06:03:41;;;;;;;15.40;6.10;;;17.00;81.40;;;17.86;50.37;95655.91;5041345;28;20904;-55
2022/10/23 06:06:08;;;;;;;19.23;6.20;;;17.40;81.80;;;18.24;50.37;95662.44;5046908;28;20463;-55
2022/10/23 06:08:35;;;;;;;9.50;6.10;;;17.70;80.80;;;18.46;49.93;95663.56;5036676;28;20472;-56
2022/10/23 06:11:07;;;;;;;14.47;6.43;;;18.00;79.80;;;18.56;49.42;95665.22;5041987;28;20456;-54
2022/10/23 06:13:35;;;;;;;15.80;6.10;;;18.10;79.20;;;18.58;50.01;95666.72;5043873;28;20472;-57
2022/10/23 06:16:10;;;;;;;17.53;6.27;;;18.20;79.20;;;18.56;49.61;95678.53;5047868;28;20455;-54
2022/10/23 06:18:37;;;;;;;23.03;8.23;;;18.20;79.20;;;18.52;50.02;95679.91;5044003;28;20467;-53
2022/10/23 06:21:05;;;;;;;20.97;7.20;;;18.20;79.20;;;18.48;50.60;95690.03;5046222;28;20521;-54
2022/10/23 06:23:32;;;;;;;21.07;6.90;;;18.20;79.70;;;18.42;50.51;95686.22;5044074;28;20471;-55
2022/10/23 06:26:00;;;;;;;20.90;5.97;;;18.10;80.40;;;18.41;51.87;95694.41;5045284;28;20452;-55
2022/10/23 06:28:27;;;;;;;10.13;5.27;;;18.10;82.40;;;18.41;51.43;95694.41;5041321;28;20876;-56
2022/10/23 06:30:54;;;;;;;13.00;6.20;;;18.10;82.30;;;18.40;52.19;95692.72;5047924;28;20992;-56
2022/10/23 06:33:23;;;;;;;12.47;7.50;;;18.10;82.90;;;18.41;52.20;95683.75;5042569;28;20527;-55
2022/10/23 06:35:50;;;;;;;9.33;6.37;;;18.10;84.20;;;18.44;52.82;95683.41;5046813;28;20953;-56
2022/10/23 06:38:18;;;;;;;7.43;6.17;;;18.10;84.20;;;18.67;52.23;95690.66;5040740;28;20444;-60
2022/10/23 06:40:46;;;;;;;8.00;5.20;;;18.30;84.40;;;19.25;52.46;95699.38;5035084;28;20494;-55
2022/10/23 06:43:13;;;;;;;8.90;5.50;;;18.70;85.50;;;20.04;52.09;95694.75;5039349;28;20501;-56
2022/10/23 06:45:41;;;;;;;20.10;6.77;;;19.40;85.50;;;20.86;50.93;95701.25;5037586;28;20515;-55
2022/10/23 06:48:08;;;;;;;10.13;5.50;;;20.10;84.20;;;21.69;49.82;95708.28;5038913;28;20444;-54
2022/10/23 06:50:37;;;;;;;12.70;5.33;;;20.90;82.90;;;22.45;48.96;95697.97;5034424;28;20737;-55
2022/10/23 06:53:04;;;;;;;9.60;6.10;;;21.70;81.40;;;23.24;48.23;95699.56;5037015;28;20455;-55
2022/10/23 06:55:31;;;;;;;11.13;5.30;;;22.40;79.00;;;23.98;46.66;95706.06;5044693;28;20463;-56
2022/10/23 06:57:59;;;;;;;12.03;5.10;;;23.20;77.10;;;24.74;45.05;95703.25;5045943;28;20960;-56
2022/10/23 07:00:26;;;;;;;11.13;5.80;;;24.00;73.30;;;25.29;44.30;95706.50;5042153;28;20557;-55
2022/10/23 07:02:54;;;;;;;9.60;5.33;;;24.60;71.60;;;25.50;43.36;95707.25;5036745;28;21370;-55
2022/10/23 07:05:21;;;;;;;16.03;6.70;;;24.90;68.40;;;25.40;43.10;95708.53;5044247;28;20479;-56
2022/10/23 07:07:50;;;;;;;14.13;5.07;;;25.00;66.80;;;25.16;43.01;95707.34;5045464;28;20851;-55
2022/10/23 07:10:17;;;;;;;24.87;6.60;;;24.90;65.10;;;24.93;43.69;95715.06;5044548;28;20952;-57
2022/10/23 07:12:46;;;;;;;6.80;5.10;;;24.70;65.70;;;25.16;43.99;95711.88;5044843;28;20529;-55
2022/10/23 07:15:13;;;;;;;15.60;5.83;;;24.80;66.50;;;25.71;43.17;95715.03;5034907;28;20472;-55
2022/10/23 07:17:41;;;;;;;20.63;5.90;;;25.30;66.00;;;26.38;41.97;95717.38;5042838;28;20466;-55
2022/10/23 07:20:08;;;;;;;9.17;5.70;;;26.00;64.10;;;27.03;41.25;95713.56;5042367;28;20690;-54
2022/10/23 07:22:37;;;;;;;9.93;5.60;;;26.70;62.20;;;27.57;40.56;95713.84;5043754;28;21213;-53
2022/10/23 07:25:07;;;;;;;9.17;5.33;;;27.40;60.20;;;28.04;39.77;95713.28;5041392;28;20456;-57
2022/10/23 07:27:37;;;;;;;11.90;5.77;;;28.00;59.30;;;28.52;38.76;95706.97;5043806;28;20454;-55
2022/10/23 07:30:05;;;;;;;6.10;5.50;;;28.50;57.60;;;28.94;37.76;95700.72;5044547;28;20467;-56
2022/10/23 07:32:32;;;;;;;20.03;4.93;;;29.00;55.70;;;29.31;37.32;95708.59;5039008;28;20459;-53
2022/10/23 07:35:00;;;;;;;11.67;5.20;;;29.50;55.20;;;29.63;36.98;95711.72;5041511;28;20580;-55
2022/10/23 07:37:29;;;;;;;16.43;5.83;;;29.80;54.40;;;29.91;37.06;95698.47;5039068;28;20983;-55
2022/10/23 07:39:56;;;;;;;12.13;6.03;;;30.10;53.40;;;30.14;35.63;95697.53;5037943;28;20474;-55
2022/10/23 07:42:25;;;;;;;8.27;5.43;;;30.20;51.60;;;30.28;35.85;95695.34;5044224;28;20452;-55
2022/10/23 07:44:52;;;;;;;9.73;5.90;;;30.30;51.40;;;30.44;35.29;95699.19;5038005;28;20474;-56
2022/10/23 07:47:19;;;;;;;9.43;5.93;;;30.30;51.00;;;30.59;34.87;95698.63;5045580;28;20459;-55
2022/10/23 07:49:48;;;;;;;12.10;6.17;;;30.30;50.90;;;30.70;34.61;95703.16;5042225;28;20732;-56
2022/10/23 07:52:15;;;;;;;12.00;6.13;;;30.30;50.00;;;30.80;33.43;95711.47;5037370;28;20459;-56
2022/10/23 07:54:42;;;;;;;22.57;5.70;;;30.40;48.00;;;30.82;33.59;95708.50;5040917;28;20224;-54
2022/10/23 07:57:10;;;;;;;8.10;5.10;;;30.40;49.30;;;30.88;33.85;95715.66;5043781;28;20227;-55
2022/10/23 07:59:39;;;;;;;17.17;5.50;;;30.40;49.20;;;31.01;33.90;95711.81;5044492;28;20235;-54
2022/10/23 08:02:11;;;;;;;6.03;5.23;;;30.50;49.10;;;31.16;33.30;95711.22;5041565;28;20782;-56
2022/10/23 08:04:38;;;;;;;16.53;5.90;;;30.60;48.80;;;31.31;33.46;95716.03;5043206;28;20237;-55
2022/10/23 08:07:05;;;;;;;22.43;5.97;;;30.70;48.40;;;31.44;33.17;95716.50;5042735;28;20231;-55
2022/10/23 08:09:34;;;;;;;11.83;5.90;;;30.80;48.10;;;31.56;33.22;95713.72;5046116;28;20653;-53
2022/10/23 08:12:01;;;;;;;14.50;5.77;;;30.90;47.90;;;31.63;32.79;95713.53;5040942;28;20201;-55
2022/10/23 08:14:28;;;;;;;6.07;4.90;;;30.90;47.10;;;31.56;32.52;95710.19;5044944;28;20220;-55
2022/10/23 08:16:57;;;;;;;17.93;5.27;;;30.90;46.60;;;31.49;32.39;95710.31;5041065;28;20197;-56
2022/10/23 08:19:24;;;;;;;12.70;5.30;;;30.90;46.20;;;31.45;31.88;95710.00;5040336;28;20294;-56
2022/10/23 08:21:53;;;;;;;10.03;5.20;;;30.80;46.10;;;31.37;32.25;95715.88;5042109;28;20252;-55
2022/10/23 08:24:20;;;;;;;11.63;5.37;;;30.80;46.60;;;31.33;32.17;95722.06;5045321;28;20577;-55
2022/10/23 08:26:49;;;;;;;7.50;4.83;;;30.70;46.80;;;31.32;32.32;95715.78;5043577;28;20581;-56
2022/10/23 08:29:17;;;;;;;13.67;5.50;;;30.70;46.60;;;31.35;32.39;95715.28;5043795;28;20822;-55
2022/10/23 08:31:44;;;;;;;4.97;4.47;;;30.70;46.90;;;31.48;32.78;95707.84;5043657;28;20201;-56
2022/10/23 08:34:13;;;;;;;23.60;6.40;;;30.80;46.50;;;31.53;32.23;95716.91;5042775;28;20742;-56
2022/10/23 08:36:40;;;;;;;11.60;6.10;;;30.80;46.50;;;31.61;31.96;95729.28;5040988;28;20197;-56
2022/10/23 08:39:07;;;;;;;11.70;5.37;;;30.90;46.60;;;31.68;32.14;95710.03;5033913;28;20216;-57
2022/10/23 08:41:36;;;;;;;7.73;5.30;;;31.00;45.80;;;31.76;32.21;95710.44;5040307;28;20429;-56
2022/10/23 08:44:09;;;;;;;10.13;5.30;;;31.10;46.20;;;31.80;31.06;95716.19;5042751;28;20225;-56
2022/10/23 08:46:41;;;;;;;4.70;4.30;;;31.10;45.30;;;31.72;31.60;95712.00;5038134;28;20251;-54
2022/10/23 08:49:23;;;;;;;5.60;3.83;;;31.10;45.80;;;31.73;31.76;95713.66;5038769;28;20231;-55
2022/10/23 08:51:52;;;;;;;5.37;4.13;;;31.10;45.80;;;31.78;31.73;95713.72;5039858;28;20201;-54
2022/10/23 08:54:21;;;;;;;6.17;4.20;;;31.10;45.80;;;31.84;31.80;95719.22;5043005;28;20225;-57
2022/10/23 08:56:51;;;;;;;13.40;5.20;;;31.10;45.60;;;31.86;31.84;95709.72;5045689;28;20201;-56
2022/10/23 08:59:23;;;;;;;8.13;4.83;;;31.20;45.20;;;31.85;31.61;95712.69;5040140;28;20233;-56
2022/10/23 09:01:53;;;;;;;12.60;4.73;;;31.20;45.40;;;31.87;31.55;95699.66;5043278;28;20304;-55
2022/10/23 09:04:22;;;;;;;9.50;4.70;;;31.20;45.30;;;31.98;31.60;95696.00;5039158;28;20237;-55
2022/10/23 09:06:54;;;;;;;6.27;4.60;;;31.30;45.30;;;32.17;31.39;95705.47;5042960;28;20209;-56
2022/10/23 09:09:52;;;;;;;9.35;4.78;;;31.40;45.20;;;32.35;30.82;95703.50;5043844;28;20228;-53
2022/10/23 09:12:22;;;;;;;6.22;4.28;;;31.60;44.50;;;32.50;30.67;95697.34;5038639;28;20204;-56
2022/10/23 09:14:59;;;;;;;8.32;4.22;;;31.80;44.80;;;32.64;31.15;95697.72;5041455;28;20232;-55
2022/10/23 09:17:27;;;;;;;8.10;3.77;;;31.90;44.60;;;32.74;31.18;95713.41;5044551;28;20661;-56
2022/10/23 09:20:00;;;;;;;7.53;4.40;;;32.00;44.40;;;32.84;30.58;95711.56;5038752;28;20318;-57
2022/10/23 09:22:28;;;;;;;19.52;3.67;;;32.10;44.30;;;32.93;30.61;95711.09;5039958;28;20233;-57
2022/10/23 09:24:55;;;;;;;11.85;4.00;;;32.20;44.00;;;32.99;30.55;95704.59;5042078;28;21067;-60
2022/10/23 09:27:23;;;;;;;6.65;3.78;;;32.30;43.80;;;33.01;30.31;95696.97;5041937;28;20205;-55
2022/10/23 09:29:52;;;;;;;5.22;3.88;;;32.30;43.60;;;33.03;30.16;95697.50;5042193;28;20245;-54
2022/10/23 09:32:19;;;;;;;3.80;3.45;;;32.30;43.00;;;33.06;30.32;95689.66;5044428;28;20725;-54
2022/10/23 09:34:54;;;;;;;5.40;3.63;;;32.40;43.00;;;33.06;29.73;95691.53;5035476;28;20298;-56
2022/10/23 09:37:25;;;;;;;8.32;4.05;;;32.40;42.90;;;33.04;30.07;95693.72;5038469;28;20235;-54
2022/10/23 09:40:03;;;;;;;4.10;3.63;;;32.40;42.80;;;33.00;29.34;95690.69;5035574;28;20271;-58
2022/10/23 09:42:31;;;;;;;5.47;3.72;;;32.40;42.50;;;33.01;30.06;95702.41;5041993;28;20235;-57
2022/10/23 09:44:58;;;;;;;5.22;3.28;;;32.40;42.80;;;33.02;29.77;95693.97;5042450;28;20228;-53
2022/10/23 09:47:26;;;;;;;13.80;3.63;;;32.40;42.30;;;32.99;30.23;95688.25;5041524;28;20200;-55
2022/10/23 09:49:55;;;;;;;2.70;2.50;;;32.40;42.30;;;32.91;29.37;95691.47;5044417;28;20228;-56
2022/10/23 09:52:28;;;;;;;4.72;3.10;;;32.30;42.00;;;32.80;29.75;95688.66;5032571;28;20212;-56
2022/10/23 09:54:58;;;;;;;3.03;2.65;;;32.20;41.90;;;32.68;29.91;95688.00;5036820;28;20776;-55
2022/10/23 09:57:32;;;;;;;3.05;2.83;;;32.10;42.10;;;32.57;29.88;95686.25;5040482;28;20204;-55
2022/10/23 10:00:02;;;;;;;3.13;2.80;;;32.00;42.00;;;32.52;29.75;95692.47;5036458;28;20220;-55
2022/10/23 10:02:30;;;;;;;3.47;2.50;;;31.90;42.10;;;32.48;29.56;95678.53;5041579;28;20236;-57
2022/10/23 10:04:58;;;;;;;3.30;2.88;;;31.90;42.00;;;32.47;29.76;95682.38;5043660;28;20290;-60
2022/10/23 10:07:28;;;;;;;7.47;3.40;;;31.90;42.00;;;32.45;29.52;95668.16;5042320;28;20208;-55
2022/10/23 10:09:56;;;;;;;4.15;3.28;;;31.80;41.70;;;32.32;29.92;95676.78;5033846;28;20229;-54
2022/10/23 10:12:42;;;;;;;4.45;3.22;;;31.70;41.90;;;32.22;28.74;95682.09;5040942;28;20213;-57
2022/10/23 10:15:17;;;;;;;3.10;2.88;;;31.60;41.70;;;32.14;29.12;95680.66;5036514;28;20316;-57
2022/10/23 10:17:53;;;;;;;5.50;2.22;;;31.60;41.80;;;32.05;29.10;95674.81;5034211;28;20666;-56
2022/10/23 10:20:40;;;;;;;4.55;2.60;;;31.50;41.20;;;31.92;28.77;95667.09;5039414;28;20278;-55